createdAt,value
2018-05-14T00:04:37.638Z,15.40
2018-05-14T00:09:38.714Z,15.40
2018-05-14T00:14:40.503Z,15.40
2018-05-14T00:19:41.650Z,15.30
2018-05-14T00:24:43.435Z,15.30
2018-05-14T00:29:45.235Z,15.30
2018-05-14T00:34:46.339Z,15.30
2018-05-14T00:39:47.362Z,15.20
2018-05-14T00:44:48.414Z,15.30
2018-05-14T00:49:49.449Z,15.30
2018-05-14T00:55:02.747Z,15.20
2018-05-14T01:00:03.782Z,15.20
2018-05-14T01:05:04.817Z,15.20
2018-05-14T01:10:05.851Z,15.20
2018-05-14T01:15:07.700Z,15.10
2018-05-14T01:20:08.763Z,15.10
2018-05-14T01:25:09.784Z,15.10
2018-05-14T01:30:10.819Z,15.10
2018-05-14T01:35:12.619Z,15.00
2018-05-14T01:40:13.674Z,15.00
2018-05-14T01:45:14.750Z,15.00
2018-05-14T01:50:15.775Z,15.00
2018-05-14T01:55:17.608Z,15.10
2018-05-14T02:00:18.635Z,15.00
2018-05-14T02:05:19.692Z,15.00
2018-05-14T02:10:20.712Z,15.10
2018-05-14T02:15:21.799Z,15.10
2018-05-14T02:20:22.824Z,15.00
2018-05-14T02:25:23.845Z,15.10
2018-05-14T02:30:24.881Z,15.10
2018-05-14T02:35:25.938Z,15.10
2018-05-14T02:40:26.970Z,15.10
2018-05-14T02:45:28.799Z,15.00
2018-05-14T02:50:29.826Z,14.90
2018-05-14T02:55:30.847Z,14.90
2018-05-14T03:00:31.894Z,14.90
2018-05-14T03:05:32.946Z,15.00
2018-05-14T03:10:34.109Z,14.90
2018-05-14T03:15:35.067Z,14.80
2018-05-14T03:20:36.123Z,14.90
2018-05-14T03:25:37.196Z,14.90
2018-05-14T03:30:38.276Z,14.90
2018-05-14T03:35:39.319Z,14.70
2018-05-14T03:40:40.369Z,14.70
2018-05-14T03:45:41.459Z,14.70
2018-05-14T03:50:42.495Z,14.90
2018-05-14T03:55:43.568Z,14.70
2018-05-14T04:00:57.050Z,14.30
2018-05-14T04:11:37.933Z,14.20
2018-05-14T04:16:39.027Z,14.00
2018-05-14T04:21:39.959Z,13.90
2018-05-14T04:26:41.798Z,13.90
2018-05-14T04:31:42.826Z,13.80
2018-05-14T04:36:43.854Z,13.90
2018-05-14T04:41:44.912Z,13.80
2018-05-14T04:46:45.985Z,13.60
2018-05-14T04:51:46.998Z,13.70
2018-05-14T04:56:48.038Z,13.80
2018-05-14T05:01:49.050Z,13.90
2018-05-14T05:12:07.774Z,13.80
2018-05-14T05:17:08.924Z,13.80
2018-05-14T05:22:09.886Z,13.80
2018-05-14T05:27:11.651Z,13.90
2018-05-14T05:32:13.393Z,14.00
2018-05-14T05:37:14.414Z,13.90
2018-05-14T05:42:15.434Z,14.00
2018-05-14T05:47:16.434Z,13.90
2018-05-14T05:52:17.455Z,14.00
2018-05-14T05:57:19.242Z,14.20
2018-05-14T06:02:21.003Z,14.10
2018-05-14T06:07:22.766Z,14.10
2018-05-14T06:12:23.799Z,14.10
2018-05-14T06:17:24.842Z,14.10
2018-05-14T06:22:26.018Z,14.20
2018-05-14T06:27:26.846Z,14.20
2018-05-14T06:32:27.867Z,14.10
2018-05-14T06:37:28.901Z,14.20
2018-05-14T06:42:29.935Z,14.10
2018-05-14T06:47:30.923Z,14.10
2018-05-14T06:52:31.957Z,14.10
2018-05-14T06:57:32.966Z,14.10
2018-05-14T07:02:33.968Z,14.10
2018-05-14T07:07:34.943Z,14.10
2018-05-14T07:12:35.973Z,14.20
2018-05-14T07:17:38.643Z,14.20
2018-05-14T07:22:40.298Z,14.30
2018-05-14T07:27:41.325Z,14.30
2018-05-14T07:32:42.374Z,14.20
2018-05-14T07:37:43.434Z,14.50
2018-05-14T07:42:44.445Z,14.40
2018-05-14T07:47:45.481Z,14.50
2018-05-14T07:52:46.484Z,14.60
2018-05-14T07:57:47.490Z,14.60
2018-05-14T08:02:48.530Z,14.80
2018-05-14T08:07:49.585Z,14.90
2018-05-14T08:12:50.606Z,14.80
2018-05-14T08:17:51.638Z,15.00
2018-05-14T08:22:52.651Z,14.90
2018-05-14T08:27:53.669Z,14.90
2018-05-14T08:32:55.420Z,15.50
2018-05-14T08:37:56.431Z,15.40
2018-05-14T08:42:57.466Z,15.70
2018-05-14T08:47:59.238Z,15.70
2018-05-14T08:53:01.036Z,15.80
2018-05-14T08:58:02.047Z,15.70
2018-05-14T09:03:03.066Z,15.80
2018-05-14T09:08:04.075Z,15.70
2018-05-14T09:13:05.839Z,15.90
2018-05-14T09:18:06.843Z,15.90
2018-05-14T09:23:07.838Z,15.90
2018-05-14T09:28:08.877Z,15.80
2018-05-14T09:33:09.858Z,15.70
2018-05-14T09:38:10.871Z,15.80
2018-05-14T09:43:11.876Z,15.80
2018-05-14T09:48:12.890Z,16.00
2018-05-14T09:53:13.894Z,16.30
2018-05-14T09:58:14.879Z,16.60
2018-05-14T10:03:16.638Z,16.90
2018-05-14T10:08:17.638Z,16.90
2018-05-14T10:13:18.660Z,17.10
2018-05-14T10:18:19.672Z,17.30
2018-05-14T10:23:20.686Z,17.50
2018-05-14T10:28:22.448Z,17.90
2018-05-14T10:33:23.466Z,17.80
2018-05-14T10:38:24.478Z,18.00
2018-05-14T10:43:26.230Z,18.90
2018-05-14T10:48:27.242Z,18.90
2018-05-14T10:53:28.252Z,18.80
2018-05-14T10:58:29.262Z,18.40
2018-05-14T11:03:30.269Z,19.00
2018-05-14T11:08:31.274Z,19.70
2018-05-14T11:13:32.293Z,19.80
2018-05-14T11:18:33.316Z,19.60
2018-05-14T11:23:34.331Z,20.10
2018-05-14T11:28:36.148Z,20.50
2018-05-14T11:33:37.158Z,20.40
2018-05-14T11:38:38.906Z,20.10
2018-05-14T11:43:39.913Z,20.10
2018-05-14T11:48:40.916Z,20.50
2018-05-14T11:53:41.918Z,20.30
2018-05-14T11:58:42.922Z,20.20
2018-05-14T12:03:43.947Z,20.10
2018-05-14T12:08:44.974Z,20.40
2018-05-14T12:13:46.787Z,20.30
2018-05-14T12:18:47.806Z,20.30
2018-05-14T12:23:49.595Z,20.50
2018-05-14T12:28:51.351Z,20.50
2018-05-14T12:33:52.359Z,20.40
2018-05-14T12:38:53.389Z,20.70
2018-05-14T12:43:54.391Z,20.70
2018-05-14T12:48:55.430Z,20.60
2018-05-14T12:53:56.453Z,20.90
2018-05-14T12:58:58.225Z,21.40
2018-05-14T13:03:59.986Z,21.50
2018-05-14T13:09:01.008Z,21.50
2018-05-14T13:14:02.019Z,21.70
2018-05-14T13:19:03.794Z,21.80
2018-05-14T13:24:05.547Z,22.00
2018-05-14T13:29:06.555Z,22.00
2018-05-14T13:34:07.578Z,21.90
2018-05-14T13:39:08.572Z,22.10
2018-05-14T13:44:09.592Z,22.10
2018-05-14T13:49:10.590Z,22.20
2018-05-14T13:54:11.594Z,22.10
2018-05-14T13:59:12.615Z,22.50
2018-05-14T14:04:13.617Z,22.80
2018-05-14T14:09:14.651Z,22.50
2018-05-14T14:14:15.656Z,22.50
2018-05-14T14:19:17.435Z,22.20
2018-05-14T14:24:19.300Z,22.10
2018-05-14T14:29:20.182Z,22.00
2018-05-14T14:34:21.203Z,21.70
2018-05-14T14:39:22.238Z,21.60
2018-05-14T14:44:23.262Z,21.40
2018-05-14T14:49:24.257Z,21.50
2018-05-14T14:54:25.260Z,21.40
2018-05-14T14:59:27.018Z,21.20
2018-05-14T15:04:28.762Z,21.30
2018-05-14T15:09:29.774Z,21.20
2018-05-14T15:14:30.791Z,21.30
2018-05-14T15:19:31.808Z,21.40
2018-05-14T15:24:32.814Z,21.50
2018-05-14T15:29:33.814Z,21.40
2018-05-14T15:34:34.850Z,21.60
2018-05-14T15:39:35.910Z,21.80
2018-05-14T15:44:36.955Z,21.60
2018-05-14T15:49:37.998Z,21.70
2018-05-14T15:54:39.020Z,22.20
2018-05-14T15:59:40.033Z,22.20
2018-05-14T16:04:41.778Z,21.60
2018-05-14T16:09:42.796Z,21.60
2018-05-14T16:14:43.828Z,21.70
2018-05-14T16:19:44.843Z,21.70
2018-05-14T16:24:45.854Z,21.70
2018-05-14T16:29:47.595Z,21.80
2018-05-14T16:34:48.686Z,21.70
2018-05-14T16:39:49.695Z,21.70
2018-05-14T16:44:50.690Z,21.50
2018-05-14T16:49:51.721Z,20.80
2018-05-14T16:54:52.706Z,20.50
2018-05-14T16:59:53.930Z,20.50
2018-05-14T17:04:55.014Z,20.20
2018-05-14T17:09:56.024Z,20.30
2018-05-14T17:14:57.236Z,20.10
2018-05-14T17:19:58.285Z,19.80
2018-05-14T17:24:59.308Z,19.70
2018-05-14T17:30:00.296Z,19.70
2018-05-14T17:35:01.879Z,19.30
2018-05-14T17:40:02.931Z,19.20
2018-05-14T17:45:04.309Z,18.80
2018-05-14T17:50:05.420Z,18.90
2018-05-14T17:55:06.413Z,19.10
2018-05-14T18:00:08.201Z,18.60
2018-05-14T18:05:10.001Z,18.80
2018-05-14T18:10:10.970Z,18.70
2018-05-14T18:15:11.955Z,19.00
2018-05-14T18:20:19.741Z,18.60
2018-05-14T18:25:26.950Z,18.50
2018-05-14T18:30:27.965Z,18.40
2018-05-14T18:41:00.532Z,18.60
2018-05-14T18:46:01.558Z,18.20
2018-05-14T18:51:02.546Z,18.20
2018-05-14T18:56:03.585Z,18.10
2018-05-14T19:01:04.693Z,18.10
2018-05-14T19:06:05.741Z,18.00
2018-05-14T19:11:12.987Z,17.80
2018-05-14T19:16:19.957Z,17.60
2018-05-14T19:21:21.717Z,17.40
2018-05-14T19:26:22.718Z,17.40
2018-05-14T19:31:23.741Z,17.50
2018-05-14T19:36:24.742Z,17.30
2018-05-14T19:41:25.754Z,17.30
2018-05-14T19:46:26.770Z,17.30
2018-05-14T19:51:27.761Z,17.20
2018-05-14T19:56:28.782Z,17.00
2018-05-14T20:01:29.807Z,17.00
2018-05-14T20:06:31.640Z,16.80
2018-05-14T20:11:33.441Z,16.90
2018-05-14T20:16:34.446Z,16.80
2018-05-14T20:21:36.213Z,16.60
2018-05-14T20:26:37.961Z,16.50
2018-05-14T20:31:38.987Z,16.40
2018-05-14T20:36:39.982Z,16.40
2018-05-14T20:41:41.053Z,16.50
2018-05-14T20:46:42.054Z,16.40
2018-05-14T20:51:43.078Z,16.40
2018-05-14T20:56:44.107Z,16.30
2018-05-14T21:01:45.118Z,16.30
2018-05-14T21:06:46.134Z,16.30
2018-05-14T21:11:47.156Z,16.20
2018-05-14T21:16:48.167Z,16.20
2018-05-14T21:21:49.914Z,16.00
2018-05-14T21:26:50.957Z,16.00
2018-05-14T21:31:51.955Z,15.90
2018-05-14T21:36:52.953Z,16.00
2018-05-14T21:41:53.955Z,15.80
2018-05-14T21:46:54.982Z,15.50
2018-05-14T21:51:55.974Z,15.40
2018-05-14T21:56:56.992Z,15.30
2018-05-14T22:01:58.055Z,15.40
2018-05-14T22:06:58.978Z,15.20
2018-05-14T22:12:00.717Z,15.20
2018-05-14T22:17:01.710Z,15.10
2018-05-14T22:22:02.733Z,14.90
2018-05-14T22:27:03.748Z,14.90
2018-05-14T22:32:04.762Z,14.90
2018-05-14T22:37:05.768Z,14.60
2018-05-14T22:42:06.754Z,14.40
2018-05-14T22:47:07.754Z,14.50
2018-05-14T22:52:09.509Z,14.50
2018-05-14T22:57:10.505Z,14.50
2018-05-14T23:02:11.505Z,14.30
2018-05-14T23:07:12.526Z,14.40
2018-05-14T23:12:13.537Z,14.30
2018-05-14T23:17:15.301Z,14.10
2018-05-14T23:22:16.311Z,14.10
2018-05-14T23:27:17.294Z,14.00
2018-05-14T23:32:18.299Z,13.90
2018-05-14T23:37:20.038Z,13.80
2018-05-14T23:42:21.037Z,13.70
2018-05-14T23:47:22.755Z,13.60
2018-05-14T23:52:23.742Z,13.60
2018-05-14T23:57:24.758Z,13.60
